• Join FlightAware (Why Join?)
  • Login
  • US Flag 
01:28AM EDT


 

Airport Tracker/Info


-or-


 

Live Flight TrackerFlight Track Log ✈ AWE1974 ✈ 21-Mar-2014 ✈ KFLL - KCLT

Flight Track Log - Related Links

Times and Time Zones

All times are in EDT time to prevent confusion due to time zone crossing. See the AWE1974 flight status page for this flight to view local times or setup timezone preferences in your user account.

Time Position Orientation Groundspeed Altitude Reporting Facility
EDT Latitude Longitude Course Direction KTS MPH feet Rate Location/Type
01:09PM 26.0750 -80.1319 356° North 170 196 1,100  Level Miami Center
01:10PM 26.0869 -80.0700 78° East 180 207 2,400 1,500 Climbing Miami Center
01:11PM 26.1217 -80.0108 57° Northeast 202 232 4,300 1,200 Climbing Miami Center
01:12PM 26.1792 -80.0517 327° Northwest 157 181 4,900 1,020 Climbing Miami Center
01:13PM 26.4958 -80.1865 356° North  Level Estimated
01:13PM 26.2364 -80.1064 319° Northwest 218 251 6,400  Level Miami Center
01:14PM 26.6016 -80.1950 356° North  Level Estimated
01:14PM 26.2997 -80.1683 319° Northwest 253 291 9,200  Level Miami Center
01:15PM 26.3633 -80.2258 321° Northwest 280 322 10,900 1,200 Climbing Miami Center
01:16PM 26.4267 -80.2856 320° Northwest 317 365 11,700 1,440 Climbing Miami Center
01:17PM 26.5125 -80.3647 320° Northwest 354 407 13,800 1,800 Climbing Miami Center
01:18PM 26.5625 -80.4497 303° West 367 422 15,300 1,500 Climbing Miami Center
01:19PM 26.6458 -80.5428 315° West 378 435 16,900 1,500 Climbing Miami Center
01:20PM 26.7367 -80.5853 337° Northwest 378 435 18,300 1,440 Climbing Miami Center
01:21PM 26.8442 -80.6283 340° North 383 441 19,800 1,440 Climbing Miami Center
01:22PM 26.9494 -80.6714 340° North 397 457 21,200 1,380 Climbing Miami Center
01:23PM 27.0569 -80.7167 339° North 408 470 22,600 1,320 Climbing Miami Center
01:24PM 27.1664 -80.7600 341° North 408 470 23,900 1,140 Climbing Miami Center
01:25PM 27.2758 -80.8081 339° North 408 470 24,900 1,200 Climbing Miami Center
01:26PM 27.3831 -80.8517 340° North 408 470 26,300 1,020 Climbing Miami Center
01:27PM 27.4883 -80.8950 340° North 408 470 27,000 300 Climbing Miami Center
01:28PM 27.5997 -80.9411 340° North 418 481 27,000  Level Miami Center
01:29PM 27.7175 -80.9900 340° North 418 481 27,000  Level Miami Center
01:30PM 27.8247 -81.0336 340° North 413 475 27,000  Level Miami Center
01:31PM 27.9319 -81.0800 339° North 408 470 27,000  Level Miami Center
01:32PM 28.0267 -81.1186 340° North 408 470 27,000  Level Miami Center
01:35PM 28.2872 -81.2283 340° North 415 478 27,000  Level Jacksonville Center
01:36PM 28.3922 -81.2739 339° North 415 478 27,000  Level Jacksonville Center
01:37PM 28.4972 -81.3169 340° North 415 478 27,000  Level Jacksonville Center
01:38PM 28.6142 -81.3411 350° North 415 478 27,000  Level Jacksonville Center
01:39PM 28.7272 -81.3536 354° North 410 472 27,000  Level Jacksonville Center
01:40PM 28.8317 -81.3664 354° North 410 472 27,000  Level Jacksonville Center
01:41PM 28.9464 -81.3764 356° North 410 472 27,000  Level Jacksonville Center
01:42PM 29.0636 -81.3864 356° North 410 472 27,000  Level Jacksonville Center
01:43PM 29.1786 -81.3989 355° North 415 478 27,000  Level Jacksonville Center
01:44PM 29.2933 -81.4067 357° North 415 478 27,000 -60 Level Jacksonville Center
01:45PM 29.4083 -81.4194 354° North 415 478 26,900 -60 Descending Jacksonville Center
01:46PM 29.5233 -81.4319 355° North 415 478 26,900  Level Jacksonville Center
01:47PM 29.6403 -81.4444 355° North 410 472 27,000  Climbing Jacksonville Center
01:48PM 29.7553 -81.4547 356° North 410 472 27,000  Level Jacksonville Center
01:49PM 29.8703 -81.4650 356° North 410 472 27,000  Level Jacksonville Center
01:50PM 29.9872 -81.4753 356° North 410 472 27,000  Level Jacksonville Center
01:51PM 30.1044 -81.4903 354° North 410 472 27,000  Level Jacksonville Center
01:52PM 30.2192 -81.5008 355° North 410 472 27,000  Level Jacksonville Center
01:53PM 30.3383 -81.5086 357° North 415 478 27,000  Level Jacksonville Center
01:54PM 30.4572 -81.5019 North 420 483 27,000  Level Jacksonville Center
01:55PM 30.5742 -81.4931 North 420 483 27,000  Level Jacksonville Center
01:56PM 30.6950 -81.4817 North 420 483 27,000  Level Jacksonville Center
01:57PM 30.8119 -81.4728 North 420 483 27,000  Level Jacksonville Center
01:58PM 30.9289 -81.4661 North 420 483 27,000  Level Jacksonville Center
01:59PM 31.0475 -81.4547 North 420 483 27,000  Level Jacksonville Center
02:00PM 31.1667 -81.4481 North 420 483 27,000  Level Jacksonville Center
02:01PM 31.2811 -81.4342 North 420 483 27,000  Level Jacksonville Center
02:02PM 31.4078 -81.3736 22° Northeast 428 493 27,000  Level Jacksonville Center
02:03PM 31.5094 -81.3208 24° Northeast 443 510 27,000  Level Jacksonville Center
02:04PM 31.6319 -81.2578 24° Northeast 438 504 27,000  Level Jacksonville Center
02:05PM 31.7439 -81.1997 24° Northeast 438 504 27,000  Level Jacksonville Center
02:06PM 31.8433 -81.1464 24° Northeast 438 504 27,000  Level Jacksonville Center
02:07PM 31.9553 -81.0881 24° Northeast 437 503 27,000  Level Jacksonville Center
02:08PM 32.0692 -81.0269 24° Northeast 442 509 27,000  Level Jacksonville Center
02:09PM 32.1936 -80.9656 23° Northeast 437 503 27,000  Level Jacksonville Center
02:10PM 32.3056 -80.9067 24° Northeast 437 503 27,000  Level Jacksonville Center
02:11PM 32.4047 -80.8528 25° Northeast 437 503 27,000  Level Jacksonville Center
02:12PM 32.5186 -80.7936 24° Northeast 437 503 27,000  Level Jacksonville Center
02:13PM 32.6283 -80.7317 25° Northeast 437 503 27,000  Level Jacksonville Center
02:14PM 32.7442 -80.6722 23° Northeast 437 503 27,000 -120 Level Jacksonville Center
02:15PM 32.8536 -80.6125 25° Northeast 437 503 26,800 -600 Descending Jacksonville Center
02:16PM 32.9633 -80.5553 24° Northeast 437 503 25,800 -1,020 Descending Jacksonville Center
02:17PM 33.0708 -80.4981 24° Northeast 431 496 24,800 -900 Descending Jacksonville Center
02:18PM 33.1761 -80.4406 25° Northeast 425 489 24,000 -420 Descending Jacksonville Center
02:19PM 33.2917 -80.3778 24° Northeast 414 476 24,000 -420 Level Jacksonville Center
02:20PM 33.3992 -80.3200 24° Northeast 414 476 23,200 -1,440 Descending Jacksonville Center
02:21PM 33.5003 -80.2647 25° Northeast 414 476 21,200 -1,140 Descending Jacksonville Center
02:22PM 33.5994 -80.2144 23° Northeast 396 456 21,000 -120 Descending Jacksonville Center
02:23PM 33.6997 -80.2214 357° North 366 421 21,000  Level Jacksonville Center
02:24PM 33.8022 -80.2333 354° North 361 415 21,000 -300 Level Jacksonville Center
02:25PM 33.9025 -80.2478 353° North 367 422 20,500 -780 Descending Jacksonville Center
02:26PM 34.0031 -80.2597 354° North 367 422 19,500 -1,020 Descending Jacksonville Center
02:27PM 34.1014 -80.2719 354° North 367 422 18,500 -900 Descending Jacksonville Center
02:28PM 34.2036 -80.2789 357° North 367 422 17,700 -900 Descending Jacksonville Center
02:29PM 34.2978 -80.2936 353° North 361 415 16,700 -960 Descending Jacksonville Center
02:30PM 34.3939 -80.3033 355° North 351 404 15,800 -1,500 Descending Jacksonville Center
02:32PM 34.6044 -80.3342 353° North 337 388 11,800 -1,440 Descending Atlanta Center
02:33PM 34.7008 -80.3475 354° North 290 334 11,000 -420 Descending Atlanta Center
02:34PM 34.7547 -80.4083 317° Northwest 254 292 11,000  Level Atlanta Center
02:35PM 34.8133 -80.4817 314° West 259 298 11,000  Level Atlanta Center
02:36PM 34.8611 -80.5431 313° West 260 299 11,000  Level Atlanta Center
02:37PM 34.9194 -80.6164 314° West 260 299 11,000 -720 Level Atlanta Center
02:38PM 34.9714 -80.6803 315° West 258 297 9,500 -1,080 Descending Atlanta Center
02:39PM 35.0167 -80.7392 313° West 260 299 9,000 -300 Descending Atlanta Center
02:40PM 35.0642 -80.7983 314° West 265 305 9,000  Level Atlanta Center
02:41PM 35.1314 -80.8161 348° North 251 289 9,000 -480 Level Atlanta Center
02:42PM 35.1919 -80.8186 358° North 210 242 8,100 -1,500 Descending Atlanta Center
02:43PM 35.2364 -80.7661 44° Northeast 220 253 6,000 -1,800 Descending Atlanta Center
02:44PM 35.2858 -80.7439 20° North 197 227 4,500 -960 Descending Atlanta Center
02:45PM 35.2997 -80.7942 289° West 166 191 4,100 -960 Descending Atlanta Center
02:46PM 35.2847 -80.8508 252° West 183 211 2,600 -1,140 Descending Atlanta Center
02:47PM 35.2503 -80.8928 225° Southwest 141 162 1,700 -840 Descending Atlanta Center
02:48PM 35.2261 -80.9292 231° Southwest 138 159 1,000 -780 Descending Atlanta Center